Ракитное

СКИДКИ НА СМАРТФОНЫ!

Карта отелей и гостиниц, располагающихся рядом с аэропортом Ракитное :

Ракитное Белгородская область 50° 48' 34.2" N, 35° 51' 33.9588" E
Код аэродрома ИКАО
H637
Код аэродрома RU
Х637
Координаты
N50.80950° E035.85943°
Превышение над уровнем моря
232
Основная полоса
14/32
Курс магнитный
137,6/317,6
Длина основной ВПП
415
Ширина основной ВПП
18
Покрытие основной ВПП
Твёрдое (асфальт)
Освещение ВПП
Нет
Тип: 
Аэродром
Класс аэродрома: 
Принадлежность: 
ГА
Статус: 
Недействующий
Сайт: 
E-mail аэродрома: 
Страна: 
Россия
Регион: 
Белгородская область
Город: 
Дополнительная информация: 
Площадка АХР.

Скидки на навигаторы!

Найти трансфер

С помощью этой формы Вы можете найти трансфер из аэропорта Ракитное в город, аэропорт или вокзал:

Погода в аэропортах:

Авиационная погода в Храброво

Регион: 
Погода METAR: 
UMKK 072100Z 22005MPS 9999 -SHSNRA SCT007 BKN019CB 01/01 Q0998 RESHRA RESHSN R24/690295 NOSIG RMK QBB210 QFE748/0997
Время наблюдения
2022-12-07T21:00:00Z
Температура C
1.0
Точка росы
1.0
Направление ветра
220
Скорость ветра (узлы)
10
Метео видимость
6.21
Облачность
SCT
BKN
Нижняя граница облачности (футы)
700
1900
Явления погоды
-SHSN -SHRA SHSN
Условия полета
MVFR
Аэропорт подробнее: 
SCT – разбросанная отдельная облачность; BKN – значительная (рассеянная, разорванная) облачность;
-SHRA - слабый ливневой дождь; -SHSN - слабый ливневой снег;

Авиационная погода в Брянске

Регион: 
Погода METAR: 
UUBP 072100Z AUTO 13005MPS 1900 SN ///004 M06/M08 Q1017 NOSIG RMK QFE745/0993
Время наблюдения
2022-12-07T21:00:00Z
Температура C
-6.0
Точка росы
-8.0
Направление ветра
130
Скорость ветра (узлы)
10
Метео видимость
1.18
Облачность
Нижняя граница облачности (футы)
Явления погоды
SN
Условия полета
Аэропорт подробнее: 
SN – снег;

Авиационная погода в Бухте Провидения

Погода METAR: 
UHMD 072100Z 22005MPS 1000 SHSN VV004 M07/M11 Q1004 RMK QBB120 MT OBSC QFE752/1003
Время наблюдения
2022-12-07T21:00:00Z
Температура C
-7.0
Точка росы
-11.0
Направление ветра
220
Скорость ветра (узлы)
10
Метео видимость
0.62
Облачность
OVX
Нижняя граница облачности (футы)
0
Явления погоды
SHSN
Условия полета
LIFR
Аэропорт подробнее: 
SHSN - ливневой снег;

Авиационная погода в аэропорту Алыкель

Регион: 
Погода METAR: 
UOOO 072100Z 03009MPS 1900 R01/P2000U SN BLSN OVC032 M22/M24 Q0999 R01/491030 NOSIG RMK QFE735/0980
Время наблюдения
2022-12-07T21:00:00Z
Температура C
-22.0
Точка росы
-24.0
Направление ветра
30
Скорость ветра (узлы)
17
Метео видимость
1.18
Облачность
OVC
Нижняя граница облачности (футы)
3200
Явления погоды
BLSN SN
Условия полета
IFR
Аэропорт подробнее: 
OVC – сплошная облачность;
BLSN – метель низовая или общая;